Time;durP1;ratioP1;P1;durP2;ratioP2;P2;SDS_P1;SDS_P2;PMS_P1;PMS_P2;Temp;Humidity;BMP_temperature;BMP_pressure;BME280_temperature;BME280_humidity;BME280_pressure;Samples;Min_cycle;Max_cycle;Signal;HPM_P1;HPM_P2
2023/12/19 00:02:25;;;;;;;17.15;12.75;;;0.80;99.90;;;;;;5017957;28;20614;-84
2023/12/19 00:05:12;;;;;;;16.67;11.98;;;0.80;99.90;;;;;;5017720;28;20207;-84
2023/12/19 00:07:57;;;;;;;16.70;11.93;;;0.60;99.90;;;;;;5023236;28;20273;-84
2023/12/19 00:10:43;;;;;;;15.93;13.05;;;0.60;99.90;;;;;;5021462;28;20676;-84
2023/12/19 00:13:29;;;;;;;18.40;13.25;;;0.60;99.90;;;;;;5022077;28;20205;-85
2023/12/19 00:16:14;;;;;;;17.60;12.38;;;0.60;99.90;;;;;;5027510;28;20224;-84
2023/12/19 00:19:00;;;;;;;15.93;12.00;;;0.60;99.90;;;;;;5021094;28;20212;-84
2023/12/19 00:21:47;;;;;;;15.30;11.73;;;0.70;99.90;;;;;;5026979;28;20276;-84
2023/12/19 00:24:33;;;;;;;17.50;11.88;;;0.60;99.90;;;;;;5027416;28;20202;-84
2023/12/19 00:27:19;;;;;;;14.77;12.27;;;0.60;99.90;;;;;;5032204;28;20205;-84
2023/12/19 00:30:05;;;;;;;18.67;12.35;;;0.60;99.90;;;;;;5028329;28;20212;-85
2023/12/19 00:32:51;;;;;;;14.70;12.20;;;0.50;99.90;;;;;;5031348;28;20273;-84
2023/12/19 00:35:37;;;;;;;17.65;14.77;;;0.50;99.90;;;;;;5010535;28;20340;-85
2023/12/19 00:38:24;;;;;;;18.17;14.60;;;0.50;99.90;;;;;;5031384;28;20244;-84
2023/12/19 00:41:09;;;;;;;16.08;12.32;;;0.60;99.90;;;;;;5029650;28;20579;-84
2023/12/19 00:43:55;;;;;;;19.27;14.65;;;0.60;99.90;;;;;;5024760;28;20204;-84
2023/12/19 00:46:43;;;;;;;16.20;13.48;;;0.70;99.90;;;;;;5020190;28;20211;-84
2023/12/19 00:49:28;;;;;;;15.82;13.10;;;0.70;99.90;;;;;;5013428;28;20204;-85
2023/12/19 00:52:14;;;;;;;16.05;11.40;;;0.80;99.90;;;;;;5013783;28;20225;-84
2023/12/19 00:55:01;;;;;;;15.15;11.05;;;0.90;99.90;;;;;;5030127;28;20213;-84
2023/12/19 00:57:47;;;;;;;14.38;11.18;;;0.90;99.90;;;;;;5031100;28;20205;-84
2023/12/19 01:00:32;;;;;;;17.15;12.25;;;0.80;99.90;;;;;;5017295;28;20202;-85
2023/12/19 01:03:18;;;;;;;19.77;11.40;;;0.80;99.90;;;;;;5030827;28;20209;-85
2023/12/19 01:06:04;;;;;;;16.42;11.75;;;0.80;99.90;;;;;;5030079;28;20575;-84
2023/12/19 01:08:49;;;;;;;20.83;11.90;;;0.80;99.90;;;;;;5019300;28;20210;-85
2023/12/19 01:11:37;;;;;;;15.20;13.23;;;0.80;99.90;;;;;;5031071;28;20231;-84
2023/12/19 01:14:22;;;;;;;14.80;12.27;;;0.90;99.90;;;;;;5031280;28;20277;-84
2023/12/19 01:17:08;;;;;;;15.20;11.68;;;0.90;99.90;;;;;;5030785;28;20248;-84
2023/12/19 01:19:53;;;;;;;16.13;12.15;;;0.90;99.90;;;;;;5031696;28;20291;-84
2023/12/19 01:22:39;;;;;;;17.65;12.15;;;1.00;99.90;;;;;;5015205;28;20226;-84
2023/12/19 01:25:25;;;;;;;20.48;12.95;;;1.00;99.90;;;;;;5015541;28;20202;-84
2023/12/19 01:28:13;;;;;;;27.30;17.00;;;0.90;99.90;;;;;;5020573;28;20210;-84
2023/12/19 01:30:59;;;;;;;26.83;17.42;;;0.90;99.90;;;;;;5020417;28;20725;-85
2023/12/19 01:33:45;;;;;;;25.42;17.33;;;0.90;99.90;;;;;;5027421;28;20689;-85
2023/12/19 01:36:30;;;;;;;26.75;17.90;;;1.00;99.90;;;;;;5007568;28;20229;-85
2023/12/19 01:39:16;;;;;;;25.80;16.27;;;1.00;99.90;;;;;;5016869;28;20299;-84
2023/12/19 01:42:02;;;;;;;25.38;17.55;;;1.00;99.90;;;;;;5029172;28;20712;-84
2023/12/19 01:45:08;;;;;;;39.88;24.90;;;0.90;99.90;;;;;;5024247;28;20201;-84
2023/12/19 01:47:54;;;;;;;42.17;23.02;;;1.00;99.90;;;;;;5022693;28;20202;-85
2023/12/19 01:50:39;;;;;;;44.22;24.52;;;0.90;99.90;;;;;;5014665;28;20226;-85
2023/12/19 01:53:26;;;;;;;38.50;24.60;;;0.90;99.90;;;;;;5011344;28;20205;-85
2023/12/19 01:56:12;;;;;;;37.80;22.80;;;0.80;99.90;;;;;;5023208;28;20240;-83
2023/12/19 01:58:58;;;;;;;29.75;22.85;;;0.80;99.90;;;;;;5023359;28;20266;-84
2023/12/19 02:01:45;;;;;;;35.10;22.73;;;0.80;99.90;;;;;;5022040;28;20351;-84
2023/12/19 02:04:30;;;;;;;30.70;20.40;;;0.80;99.90;;;;;;5031535;28;20206;-84
2023/12/19 02:07:16;;;;;;;25.42;18.98;;;0.70;99.90;;;;;;5029801;28;20213;-84
2023/12/19 02:10:02;;;;;;;28.02;18.35;;;0.70;99.90;;;;;;5030199;28;20209;-84
2023/12/19 02:12:48;;;;;;;29.45;19.02;;;0.80;99.90;;;;;;5022648;28;20781;-84
2023/12/19 02:15:34;;;;;;;28.88;18.05;;;0.90;99.90;;;;;;5031317;28;20781;-84
2023/12/19 02:18:22;;;;;;;29.98;18.88;;;0.90;99.90;;;;;;5013987;28;20289;-84
2023/12/19 02:21:08;;;;;;;26.20;17.70;;;0.90;99.90;;;;;;5023111;28;20230;-85
2023/12/19 02:23:55;;;;;;;26.38;15.88;;;1.00;99.90;;;;;;5030905;28;20336;-84
2023/12/19 02:26:41;;;;;;;23.23;14.05;;;1.00;99.90;;;;;;5020568;28;20201;-84
2023/12/19 02:29:27;;;;;;;17.30;13.18;;;1.10;99.90;;;;;;5016889;28;20688;-84
2023/12/19 02:32:12;;;;;;;17.35;12.40;;;1.20;99.90;;;;;;5030621;28;20747;-84
2023/12/19 02:34:58;;;;;;;13.02;9.68;;;1.40;99.90;;;;;;5015010;28;20225;-84
2023/12/19 02:37:43;;;;;;;15.35;9.27;;;1.50;99.90;;;;;;5030837;28;20221;-84
2023/12/19 02:40:31;;;;;;;10.90;7.65;;;1.70;99.90;;;;;;5031295;28;20201;-84
2023/12/19 02:43:16;;;;;;;20.80;8.55;;;1.80;99.90;;;;;;5028956;28;20210;-85
2023/12/19 02:46:02;;;;;;;12.23;8.43;;;1.80;99.90;;;;;;5025920;28;20221;-85
2023/12/19 02:48:48;;;;;;;14.27;9.23;;;1.80;99.90;;;;;;5028964;28;20679;-84
2023/12/19 02:51:33;;;;;;;12.27;8.02;;;1.90;99.90;;;;;;5022866;28;20225;-85
2023/12/19 02:54:19;;;;;;;11.02;8.45;;;1.90;99.90;;;;;;5030636;28;20202;-85
2023/12/19 02:57:06;;;;;;;12.13;8.25;;;2.00;99.90;;;;;;5030797;28;20229;-85
2023/12/19 02:59:52;;;;;;;15.13;8.40;;;2.10;99.90;;;;;;5031648;28;20593;-84
2023/12/19 03:02:38;;;;;;;9.93;7.85;;;2.10;99.90;;;;;;5019918;28;20703;-85
2023/12/19 03:05:24;;;;;;;12.50;9.75;;;2.10;99.90;;;;;;5031505;28;20212;-85
2023/12/19 03:08:09;;;;;;;15.20;8.18;;;2.20;99.90;;;;;;5016580;28;20273;-85
2023/12/19 03:10:56;;;;;;;12.00;9.10;;;2.10;99.90;;;;;;5030820;28;20352;-85
2023/12/19 03:13:45;;;;;;;10.35;8.13;;;2.10;99.90;;;;;;5014391;28;20245;-85
2023/12/19 03:16:30;;;;;;;12.10;9.27;;;2.10;99.90;;;;;;5011843;28;20218;-85
2023/12/19 03:19:16;;;;;;;11.68;9.50;;;2.00;99.90;;;;;;5015803;28;20283;-85
2023/12/19 03:22:02;;;;;;;11.90;8.95;;;2.00;99.90;;;;;;5024767;28;20750;-84
2023/12/19 03:24:47;;;;;;;12.75;8.90;;;2.00;99.90;;;;;;5014853;28;20214;-85
2023/12/19 03:27:33;;;;;;;18.02;10.40;;;2.00;99.90;;;;;;5009424;28;20740;-84
2023/12/19 03:30:20;;;;;;;14.02;9.30;;;2.10;99.90;;;;;;5015891;28;20297;-85
2023/12/19 03:33:06;;;;;;;11.45;8.43;;;2.10;99.90;;;;;;5031188;28;20228;-84
2023/12/19 03:35:52;;;;;;;12.18;9.82;;;2.10;99.90;;;;;;5016097;28;20319;-85
2023/12/19 03:38:38;;;;;;;13.75;10.38;;;2.20;99.90;;;;;;5009651;28;20570;-85
2023/12/19 03:41:23;;;;;;;13.85;10.90;;;2.10;99.90;;;;;;5015082;28;20234;-85
2023/12/19 03:44:09;;;;;;;14.52;10.65;;;2.10;99.90;;;;;;5023298;28;20237;-84
2023/12/19 03:46:56;;;;;;;13.48;9.75;;;2.10;99.90;;;;;;5017752;28;20206;-84
2023/12/19 03:49:42;;;;;;;13.18;9.38;;;2.10;99.90;;;;;;5010153;28;20696;-85
2023/12/19 03:52:27;;;;;;;11.38;9.13;;;2.00;99.90;;;;;;5030825;28;20268;-85
2023/12/19 03:55:13;;;;;;;12.45;9.25;;;2.00;99.90;;;;;;5016534;28;20217;-85
2023/12/19 03:57:58;;;;;;;13.50;10.15;;;2.10;99.90;;;;;;5024000;28;20229;-84
2023/12/19 04:00:44;;;;;;;13.20;9.73;;;2.20;99.90;;;;;;5010403;28;20198;-85
2023/12/19 04:03:31;;;;;;;12.02;9.32;;;2.20;99.90;;;;;;5013291;28;20197;-85
2023/12/19 04:06:17;;;;;;;14.70;11.45;;;2.20;99.90;;;;;;5016594;28;20214;-84
2023/12/19 04:09:02;;;;;;;13.00;10.25;;;2.30;99.90;;;;;;5023485;28;20209;-85
2023/12/19 04:11:48;;;;;;;13.88;10.13;;;2.30;99.90;;;;;;5015200;28;20346;-85
2023/12/19 04:14:34;;;;;;;16.10;10.73;;;2.40;99.90;;;;;;5016772;28;20285;-84
2023/12/19 04:17:19;;;;;;;18.17;11.32;;;2.40;99.90;;;;;;5016067;28;20276;-84
2023/12/19 04:20:08;;;;;;;16.77;12.02;;;2.40;99.90;;;;;;5016242;28;20209;-84
2023/12/19 04:22:54;;;;;;;11.98;9.23;;;2.40;99.90;;;;;;5018718;28;20237;-84
2023/12/19 04:25:39;;;;;;;18.52;11.82;;;2.30;99.90;;;;;;5010302;28;20203;-84
2023/12/19 04:28:25;;;;;;;17.08;11.70;;;2.30;99.90;;;;;;5015391;28;20201;-85
2023/12/19 04:31:10;;;;;;;18.10;12.30;;;2.30;99.90;;;;;;5013337;28;20596;-84
2023/12/19 04:33:56;;;;;;;18.10;12.10;;;2.40;99.90;;;;;;5008291;28;20585;-84
2023/12/19 04:36:43;;;;;;;23.40;14.68;;;2.40;99.90;;;;;;5017554;28;20226;-84
2023/12/19 04:39:29;;;;;;;24.95;12.95;;;2.50;99.90;;;;;;5008616;28;20210;-84
2023/12/19 04:42:17;;;;;;;16.23;12.50;;;2.50;99.90;;;;;;5015449;28;20221;-84
2023/12/19 04:45:02;;;;;;;19.95;12.60;;;2.50;99.90;;;;;;5015978;28;20208;-84
2023/12/19 04:47:48;;;;;;;15.50;11.70;;;2.60;99.90;;;;;;5020705;28;20281;-84
2023/12/19 04:50:34;;;;;;;21.17;13.00;;;2.60;99.90;;;;;;5011010;28;20393;-84
2023/12/19 04:53:21;;;;;;;15.50;11.43;;;2.60;99.90;;;;;;5016350;28;20201;-83
2023/12/19 04:56:07;;;;;;;20.02;12.57;;;2.60;99.90;;;;;;5016010;28;20663;-84
2023/12/19 04:58:53;;;;;;;17.63;13.50;;;2.60;99.90;;;;;;5022630;28;20232;-85
2023/12/19 05:01:40;;;;;;;17.85;13.23;;;2.60;99.90;;;;;;5025932;28;20217;-84
2023/12/19 05:04:25;;;;;;;19.55;12.75;;;2.60;99.90;;;;;;5030229;28;20205;-84
2023/12/19 05:07:11;;;;;;;17.25;11.93;;;2.60;99.90;;;;;;5022445;28;20334;-84
2023/12/19 05:09:59;;;;;;;21.75;14.80;;;2.60;99.90;;;;;;5015532;28;20314;-83
2023/12/19 05:12:45;;;;;;;15.70;12.73;;;2.60;99.90;;;;;;5010551;28;20284;-84
2023/12/19 05:15:32;;;;;;;17.52;13.40;;;2.60;99.90;;;;;;5008441;28;20206;-84
2023/12/19 05:18:18;;;;;;;16.80;13.30;;;2.70;99.90;;;;;;5018260;28;20229;-84
2023/12/19 05:21:04;;;;;;;16.10;12.48;;;2.70;99.90;;;;;;5023844;28;20237;-84
2023/12/19 05:23:49;;;;;;;15.80;12.60;;;2.70;99.90;;;;;;5021890;28;20206;-84
2023/12/19 05:26:36;;;;;;;20.83;14.32;;;2.70;99.90;;;;;;5022477;28;20759;-84
2023/12/19 05:29:22;;;;;;;21.60;14.50;;;2.70;99.90;;;;;;5017781;28;20229;-84
2023/12/19 05:32:08;;;;;;;21.45;16.85;;;2.70;99.90;;;;;;5029727;28;20731;-83
2023/12/19 05:34:53;;;;;;;24.13;16.67;;;2.60;99.90;;;;;;5015435;28;20210;-84
2023/12/19 05:37:39;;;;;;;22.95;15.60;;;2.60;99.90;;;;;;5015128;28;20218;-83
2023/12/19 05:40:25;;;;;;;21.10;14.80;;;2.60;99.90;;;;;;5013620;28;20281;-83
2023/12/19 05:43:13;;;;;;;25.98;16.00;;;2.60;99.90;;;;;;5022386;28;20201;-84
2023/12/19 05:45:59;;;;;;;27.85;15.30;;;2.50;99.90;;;;;;5015689;28;20715;-83
2023/12/19 05:48:45;;;;;;;22.42;15.82;;;2.50;99.90;;;;;;5012375;28;20201;-84
2023/12/19 05:51:30;;;;;;;23.38;15.05;;;2.50;99.90;;;;;;5021467;28;20353;-85
2023/12/19 05:54:16;;;;;;;23.30;15.15;;;2.50;99.90;;;;;;5030280;28;20209;-85
2023/12/19 05:57:01;;;;;;;21.08;16.00;;;2.50;99.90;;;;;;5015718;28;20226;-82
2023/12/19 05:59:48;;;;;;;21.95;14.77;;;2.50;99.90;;;;;;5016023;28;20703;-84
2023/12/19 06:02:34;;;;;;;19.90;15.20;;;2.50;99.90;;;;;;5008890;28;20266;-83
2023/12/19 06:05:20;;;;;;;23.25;15.85;;;2.50;99.90;;;;;;5016345;28;20209;-84
2023/12/19 06:08:06;;;;;;;23.27;16.13;;;2.50;99.90;;;;;;5016382;28;20288;-83
2023/12/19 06:10:52;;;;;;;20.73;15.35;;;2.50;99.90;;;;;;5018820;28;20341;-84
2023/12/19 06:13:38;;;;;;;21.60;15.38;;;2.60;99.90;;;;;;5014021;28;20206;-84
2023/12/19 06:16:25;;;;;;;22.45;16.08;;;2.60;99.90;;;;;;5021032;28;20313;-84
2023/12/19 06:19:10;;;;;;;23.05;16.33;;;2.60;99.90;;;;;;5017045;28;20209;-84
2023/12/19 06:21:56;;;;;;;22.33;15.20;;;2.60;99.90;;;;;;5030966;28;20248;-83
2023/12/19 06:24:42;;;;;;;21.70;15.45;;;2.70;99.90;;;;;;5014585;28;20225;-84
2023/12/19 06:27:27;;;;;;;21.80;16.02;;;2.70;99.90;;;;;;5022834;28;20209;-84
2023/12/19 06:30:14;;;;;;;21.75;16.48;;;2.70;99.90;;;;;;5031754;28;20224;-84
2023/12/19 06:33:01;;;;;;;21.35;15.95;;;2.60;99.90;;;;;;5023904;28;20244;-83
2023/12/19 06:35:51;;;;;;;22.45;15.75;;;2.60;99.90;;;;;;5010881;28;20261;-84
2023/12/19 06:38:38;;;;;;;21.40;14.32;;;2.50;99.90;;;;;;5008910;28;20242;-84
2023/12/19 06:41:23;;;;;;;22.77;15.68;;;2.60;99.90;;;;;;5020167;28;20225;-84
2023/12/19 06:44:09;;;;;;;22.90;16.85;;;2.50;99.90;;;;;;5017025;28;20209;-84
2023/12/19 06:46:55;;;;;;;23.77;16.85;;;2.50;99.90;;;;;;5011958;28;20257;-84
2023/12/19 06:49:44;;;;;;;28.60;18.95;;;2.30;99.90;;;;;;5008348;28;20202;-83
2023/12/19 06:52:29;;;;;;;22.83;17.70;;;2.30;99.90;;;;;;5015358;28;20221;-84
2023/12/19 06:55:15;;;;;;;23.33;18.75;;;2.40;99.90;;;;;;5015101;28;20680;-84
2023/12/19 06:58:00;;;;;;;25.25;17.10;;;2.30;99.90;;;;;;5016235;28;20228;-84
2023/12/19 07:00:47;;;;;;;26.63;18.52;;;2.20;99.90;;;;;;5010691;28;20202;-84
2023/12/19 07:03:33;;;;;;;27.02;19.92;;;2.10;99.90;;;;;;5015435;28;20206;-84
2023/12/19 07:06:20;;;;;;;28.20;19.08;;;2.10;99.90;;;;;;5027323;28;20255;-84
2023/12/19 07:09:05;;;;;;;23.83;16.33;;;2.20;99.90;;;;;;5022849;28;20201;-84
2023/12/19 07:11:51;;;;;;;29.25;19.33;;;2.10;99.90;;;;;;5011734;28;20702;-83
2023/12/19 07:14:38;;;;;;;24.85;16.00;;;2.10;99.90;;;;;;5015843;28;20314;-84
2023/12/19 07:17:23;;;;;;;24.73;17.92;;;2.10;99.90;;;;;;5013920;28;20237;-84
2023/12/19 07:20:10;;;;;;;27.90;20.30;;;2.00;99.90;;;;;;5023471;28;20214;-84
2023/12/19 07:22:57;;;;;;;29.65;20.50;;;2.00;99.90;;;;;;5015881;28;20236;-84
2023/12/19 07:25:42;;;;;;;26.75;18.38;;;2.00;99.90;;;;;;5010220;28;20205;-84
2023/12/19 07:28:28;;;;;;;23.70;17.98;;;1.90;99.90;;;;;;5017855;28;20575;-84
2023/12/19 07:31:21;;;;;;;27.83;18.98;;;1.80;99.90;;;;;;5015739;28;20704;-84
2023/12/19 07:34:07;;;;;;;23.40;17.25;;;1.80;99.90;;;;;;5017324;28;20580;-84
2023/12/19 07:36:53;;;;;;;21.70;16.13;;;1.80;99.90;;;;;;5016713;28;20257;-84
2023/12/19 07:39:40;;;;;;;23.38;16.75;;;1.70;99.90;;;;;;5007800;28;20684;-84
2023/12/19 07:42:26;;;;;;;21.75;16.10;;;1.80;99.90;;;;;;5015405;28;20268;-83
2023/12/19 07:45:12;;;;;;;22.75;16.10;;;1.70;99.90;;;;;;5018010;28;20708;-84
2023/12/19 07:47:58;;;;;;;24.30;17.10;;;1.70;99.90;;;;;;5014265;28;20210;-84
2023/12/19 07:50:44;;;;;;;24.83;17.50;;;1.60;99.90;;;;;;5015376;28;20265;-84
2023/12/19 07:53:29;;;;;;;27.00;17.77;;;1.60;99.90;;;;;;5017251;28;20210;-84
2023/12/19 07:56:16;;;;;;;23.73;17.40;;;1.60;99.90;;;;;;5020972;28;20213;-83
2023/12/19 07:59:02;;;;;;;25.70;17.23;;;1.60;99.90;;;;;;5022565;28;20225;-84
2023/12/19 08:01:48;;;;;;;25.50;17.27;;;1.60;99.90;;;;;;5011360;28;20814;-84
2023/12/19 08:04:35;;;;;;;30.13;19.80;;;1.70;99.90;;;;;;5016318;28;20626;-84
2023/12/19 08:07:20;;;;;;;30.90;20.00;;;1.80;99.90;;;;;;5020989;28;20205;-84
2023/12/19 08:10:07;;;;;;;32.30;21.27;;;1.90;99.90;;;;;;5021522;28;20213;-84
2023/12/19 08:12:55;;;;;;;39.47;25.40;;;1.90;99.90;;;;;;5025806;28;20229;-84
2023/12/19 08:15:41;;;;;;;29.40;18.55;;;2.00;99.90;;;;;;5009487;28;20210;-83
2023/12/19 08:18:27;;;;;;;28.02;18.83;;;2.10;99.90;;;;;;5011193;28;20234;-84
2023/12/19 08:21:13;;;;;;;23.48;16.92;;;2.20;99.90;;;;;;5016315;28;20284;-84
2023/12/19 08:23:58;;;;;;;27.05;17.55;;;2.20;99.90;;;;;;5009329;28;20202;-84
2023/12/19 08:26:47;;;;;;;24.35;16.92;;;2.30;99.90;;;;;;5013012;28;20206;-84
2023/12/19 08:29:34;;;;;;;28.23;19.60;;;2.30;99.90;;;;;;5014410;28;20234;-84
2023/12/19 08:32:20;;;;;;;23.05;17.10;;;2.30;99.90;;;;;;5011558;28;20297;-84
2023/12/19 08:35:06;;;;;;;28.65;18.20;;;2.40;99.90;;;;;;5011983;28;20202;-84
2023/12/19 08:37:53;;;;;;;23.05;17.73;;;2.50;99.90;;;;;;5009769;28;20231;-84
2023/12/19 08:40:38;;;;;;;27.60;19.30;;;2.60;99.90;;;;;;5012335;28;20683;-84
2023/12/19 08:43:24;;;;;;;25.08;19.20;;;2.60;99.90;;;;;;5016521;28;20212;-84
2023/12/19 08:46:11;;;;;;;29.17;18.17;;;2.70;99.90;;;;;;5010758;28;20329;-84
2023/12/19 08:48:57;;;;;;;30.77;19.35;;;2.70;99.90;;;;;;5007664;28;20221;-83
2023/12/19 08:51:47;;;;;;;26.05;17.42;;;2.70;99.90;;;;;;5012986;28;20251;-84
2023/12/19 08:54:32;;;;;;;22.90;15.70;;;2.70;99.90;;;;;;5012175;28;20289;-84
2023/12/19 08:57:18;;;;;;;21.80;14.77;;;2.70;99.90;;;;;;5007478;28;20221;-84
2023/12/19 09:00:04;;;;;;;21.67;15.02;;;2.80;99.90;;;;;;5006987;28;20214;-83
2023/12/19 09:02:51;;;;;;;22.58;15.68;;;2.80;99.90;;;;;;5014110;28;20230;-84
2023/12/19 09:05:36;;;;;;;20.85;14.93;;;2.80;99.90;;;;;;5004422;28;20584;-84
2023/12/19 09:08:23;;;;;;;24.00;15.00;;;2.80;99.90;;;;;;5007053;28;20276;-84
2023/12/19 09:11:09;;;;;;;23.73;15.75;;;2.80;99.90;;;;;;5006378;28;20230;-83
2023/12/19 09:13:55;;;;;;;18.85;14.52;;;2.90;99.90;;;;;;5008241;28;20293;-84
2023/12/19 09:16:40;;;;;;;21.92;14.57;;;2.90;99.90;;;;;;5007059;28;20210;-84
2023/12/19 09:19:30;;;;;;;20.38;15.65;;;2.90;99.90;;;;;;5007571;28;20230;-84
2023/12/19 09:22:16;;;;;;;27.85;15.57;;;3.00;99.90;;;;;;5008014;28;20230;-83
2023/12/19 09:25:01;;;;;;;21.50;15.48;;;3.00;99.90;;;;;;5008162;28;20209;-84
2023/12/19 09:27:48;;;;;;;21.67;15.05;;;3.00;99.90;;;;;;5015997;28;20339;-84
2023/12/19 09:30:34;;;;;;;21.55;13.95;;;3.00;99.90;;;;;;5011468;28;20214;-85
2023/12/19 09:33:20;;;;;;;20.95;16.13;;;3.00;99.90;;;;;;5027927;28;20201;-84
2023/12/19 09:36:09;;;;;;;26.08;15.80;;;2.90;99.90;;;;;;5009432;28;20214;-84
2023/12/19 09:38:54;;;;;;;24.40;14.63;;;2.90;99.90;;;;;;5006926;28;20234;-84
2023/12/19 09:41:39;;;;;;;20.05;14.50;;;3.00;99.90;;;;;;5008174;28;20230;-85
2023/12/19 09:44:27;;;;;;;27.85;14.85;;;3.00;99.90;;;;;;5017409;28;20205;-85
2023/12/19 09:47:21;;;;;;;23.45;14.70;;;3.00;99.90;;;;;;5011020;28;20585;-84
2023/12/19 09:50:11;;;;;;;21.00;15.63;;;3.00;99.90;;;;;;5011551;28;20198;-85
2023/12/19 09:52:59;;;;;;;20.90;13.63;;;3.00;99.90;;;;;;5009299;28;20584;-83
2023/12/19 09:55:47;;;;;;;23.73;15.95;;;3.10;99.90;;;;;;5008706;28;20576;-84
2023/12/19 09:58:33;;;;;;;20.45;14.70;;;3.00;99.90;;;;;;5025668;28;20225;-86
2023/12/19 10:01:19;;;;;;;36.75;20.67;;;3.10;99.90;;;;;;5008045;28;20225;-84
2023/12/19 10:04:13;;;;;;;20.90;14.32;;;3.20;99.90;;;;;;5010721;28;20661;-84
2023/12/19 10:07:00;;;;;;;18.92;13.55;;;3.20;99.90;;;;;;5010780;28;20218;-84
2023/12/19 10:09:54;;;;;;;22.73;13.77;;;3.20;99.90;;;;;;5017751;28;20781;-83
2023/12/19 10:12:49;;;;;;;18.52;13.30;;;3.20;99.90;;;;;;5013611;28;20226;-84
2023/12/19 10:15:35;;;;;;;23.17;14.35;;;3.30;99.90;;;;;;5031965;28;20221;-84
2023/12/19 10:18:23;;;;;;;21.83;15.52;;;3.30;99.90;;;;;;5028581;28;20222;-84
2023/12/19 10:21:10;;;;;;;20.02;15.38;;;3.30;99.90;;;;;;5020033;28;20237;-83
2023/12/19 10:24:07;;;;;;;22.52;16.80;;;3.30;99.90;;;;;;5021200;28;20343;-84
2023/12/19 10:27:00;;;;;;;20.80;14.60;;;3.30;99.90;;;;;;5016155;28;20213;-84
2023/12/19 10:29:46;;;;;;;23.92;16.40;;;3.40;99.90;;;;;;5013668;28;20214;-84
2023/12/19 10:32:32;;;;;;;21.45;15.48;;;3.40;99.90;;;;;;5016005;28;20232;-83
2023/12/19 10:35:18;;;;;;;21.27;15.45;;;3.40;99.90;;;;;;5022908;28;20292;-83
2023/12/19 10:38:03;;;;;;;21.73;14.52;;;3.40;99.90;;;;;;5017876;28;20468;-84
2023/12/19 10:41:01;;;;;;;20.35;15.52;;;3.40;99.90;;;;;;5022129;28;20284;-83
2023/12/19 10:43:50;;;;;;;20.00;14.63;;;3.40;99.90;;;;;;5020757;28;20712;-83
2023/12/19 10:46:37;;;;;;;19.48;14.60;;;3.50;99.90;;;;;;5019275;28;20211;-83
2023/12/19 10:49:23;;;;;;;18.77;14.50;;;3.50;99.90;;;;;;5023462;28;20639;-84
2023/12/19 10:52:10;;;;;;;19.52;13.88;;;3.50;99.90;;;;;;5018932;28;20233;-84
2023/12/19 10:55:04;;;;;;;20.33;14.20;;;3.40;99.90;;;;;;5016503;28;20237;-84
2023/12/19 10:57:51;;;;;;;24.38;16.48;;;3.30;99.90;;;;;;5023202;28;20213;-84
2023/12/19 11:00:41;;;;;;;22.30;15.13;;;3.40;99.90;;;;;;5021830;28;20325;-83
2023/12/19 11:03:32;;;;;;;20.08;14.10;;;3.40;99.90;;;;;;5013298;28;20210;-84
2023/12/19 11:06:19;;;;;;;20.77;13.70;;;3.40;99.90;;;;;;5022444;28;20205;-84
2023/12/19 11:09:08;;;;;;;19.60;13.57;;;3.50;99.90;;;;;;5012001;28;20198;-84
2023/12/19 11:11:55;;;;;;;22.60;15.25;;;3.50;99.90;;;;;;5012237;28;20763;-84
2023/12/19 11:14:41;;;;;;;19.27;13.65;;;3.60;99.90;;;;;;5016198;28;20229;-84
2023/12/19 11:17:39;;;;;;;18.98;13.00;;;3.60;99.90;;;;;;5014014;28;20330;-84
2023/12/19 11:20:29;;;;;;;18.23;12.90;;;3.60;99.90;;;;;;5013704;28;20213;-83
2023/12/19 11:23:25;;;;;;;21.65;13.73;;;3.70;99.90;;;;;;5022085;28;20214;-85
2023/12/19 11:26:17;;;;;;;21.63;12.30;;;3.70;99.90;;;;;;5021766;28;20210;-84
2023/12/19 11:29:03;;;;;;;16.70;12.05;;;3.80;99.90;;;;;;5022610;28;20262;-85
2023/12/19 11:31:48;;;;;;;20.40;13.50;;;3.70;99.90;;;;;;5020525;28;20647;-84
2023/12/19 11:34:35;;;;;;;15.45;12.13;;;3.70;99.90;;;;;;5027155;28;20284;-85
2023/12/19 11:37:22;;;;;;;16.77;11.50;;;3.80;99.90;;;;;;5018755;28;20214;-84
2023/12/19 11:40:09;;;;;;;17.75;11.75;;;3.80;99.90;;;;;;5024732;28;20226;-84
2023/12/19 11:42:55;;;;;;;17.42;11.35;;;3.80;99.90;;;;;;5024947;28;20794;-85
2023/12/19 11:45:42;;;;;;;20.45;13.82;;;3.80;99.90;;;;;;5025551;28;20282;-85
2023/12/19 11:48:38;;;;;;;19.48;12.27;;;3.90;99.90;;;;;;5020699;28;20202;-83
2023/12/19 11:51:54;;;;;;;16.50;10.23;;;3.90;99.90;;;;;;5028894;28;20233;-85
2023/12/19 11:54:39;;;;;;;17.90;12.40;;;3.90;99.90;;;;;;5018262;28;20203;-85
2023/12/19 11:57:24;;;;;;;18.30;11.48;;;3.90;99.90;;;;;;5023375;28;20223;-84
2023/12/19 12:00:13;;;;;;;17.73;11.05;;;4.00;99.90;;;;;;5026609;28;20221;-85
2023/12/19 12:03:06;;;;;;;16.33;11.57;;;4.00;99.90;;;;;;5021127;28;20292;-85
2023/12/19 12:05:52;;;;;;;16.88;10.95;;;4.00;99.90;;;;;;5022926;28;20340;-84
2023/12/19 12:08:39;;;;;;;19.05;10.98;;;4.00;99.90;;;;;;5028219;28;20209;-85
2023/12/19 12:11:25;;;;;;;16.38;11.05;;;4.00;99.90;;;;;;5013148;28;20254;-85
2023/12/19 12:14:11;;;;;;;16.75;11.90;;;4.10;99.90;;;;;;5023744;28;20205;-85
2023/12/19 12:16:56;;;;;;;16.85;10.20;;;4.10;99.90;;;;;;5028845;28;20606;-84
2023/12/19 12:19:42;;;;;;;15.18;11.43;;;4.20;99.90;;;;;;5022053;28;20305;-84
2023/12/19 12:22:28;;;;;;;15.73;11.32;;;4.10;99.90;;;;;;5025730;28;20611;-85
2023/12/19 12:25:16;;;;;;;17.73;11.57;;;4.20;99.90;;;;;;5039473;22;20598;-74
2023/12/19 12:28:08;;;;;;;16.63;10.80;;;4.20;99.90;;;;;;5041093;28;20253;-73
2023/12/19 12:30:55;;;;;;;12.57;8.75;;;4.20;99.90;;;;;;5038172;28;20409;-73
2023/12/19 12:33:40;;;;;;;13.57;10.30;;;4.10;99.90;;;;;;5037307;28;20229;-72
2023/12/19 12:36:26;;;;;;;11.85;8.93;;;4.10;99.90;;;;;;5042184;28;20217;-74
2023/12/19 12:39:13;;;;;;;12.88;9.07;;;4.10;99.90;;;;;;5040802;28;20221;-74
2023/12/19 12:42:05;;;;;;;12.40;9.07;;;4.20;99.90;;;;;;5040253;28;20232;-74
2023/12/19 12:45:00;;;;;;;12.90;8.68;;;4.30;99.90;;;;;;5044258;28;20195;-74
2023/12/19 12:47:47;;;;;;;11.25;7.68;;;4.30;99.90;;;;;;5038930;28;20201;-74
2023/12/19 12:50:32;;;;;;;10.60;7.97;;;4.30;99.90;;;;;;5037134;28;20198;-71
2023/12/19 12:53:18;;;;;;;11.68;8.13;;;4.30;99.90;;;;;;5047489;28;20776;-71
2023/12/19 12:56:05;;;;;;;11.98;8.73;;;4.30;99.90;;;;;;5052812;28;20197;-72
2023/12/19 12:59:00;;;;;;;11.88;8.80;;;4.30;99.90;;;;;;5044115;28;20322;-72
2023/12/19 13:01:47;;;;;;;11.55;7.97;;;4.40;99.90;;;;;;5045862;28;20206;-72
2023/12/19 13:04:33;;;;;;;11.25;7.60;;;4.40;99.90;;;;;;5036107;28;20762;-71
2023/12/19 13:07:18;;;;;;;11.18;7.90;;;4.40;99.90;;;;;;5043080;28;20213;-72
2023/12/19 13:10:07;;;;;;;9.93;7.57;;;4.40;99.90;;;;;;5049328;28;20193;-71
2023/12/19 13:12:53;;;;;;;10.20;7.63;;;4.40;99.90;;;;;;5038695;28;20785;-72
2023/12/19 13:15:40;;;;;;;10.73;7.47;;;4.50;99.90;;;;;;5033966;28;20205;-72
2023/12/19 13:18:27;;;;;;;11.18;7.57;;;4.50;99.90;;;;;;5034766;28;20207;-72
2023/12/19 13:21:13;;;;;;;12.05;6.75;;;4.50;99.90;;;;;;5028301;28;20209;-71
2023/12/19 13:23:58;;;;;;;11.82;6.78;;;4.50;99.90;;;;;;5045886;28;20751;-71
2023/12/19 13:26:44;;;;;;;9.68;6.72;;;4.50;99.90;;;;;;5048919;28;20744;-72
2023/12/19 13:29:29;;;;;;;10.70;7.75;;;4.60;99.90;;;;;;5038752;28;20726;-72
2023/12/19 13:32:16;;;;;;;12.25;7.38;;;4.60;99.90;;;;;;5043824;28;20234;-73
2023/12/19 13:35:02;;;;;;;10.35;6.88;;;4.50;99.90;;;;;;5043355;28;20221;-72
2023/12/19 13:37:49;;;;;;;8.70;5.90;;;4.50;99.90;;;;;;5035557;28;20204;-74
2023/12/19 13:40:34;;;;;;;9.18;6.47;;;4.50;99.90;;;;;;5040102;28;20600;-73
2023/12/19 13:43:20;;;;;;;8.70;6.28;;;4.50;99.90;;;;;;5042693;28;20593;-74
2023/12/19 13:46:05;;;;;;;9.65;7.00;;;4.50;99.90;;;;;;5043666;28;20210;-74
2023/12/19 13:48:53;;;;;;;8.88;6.32;;;4.50;99.90;;;;;;5039904;28;20699;-74
2023/12/19 13:51:38;;;;;;;10.20;6.90;;;4.50;99.90;;;;;;5030617;28;20290;-71
2023/12/19 13:54:26;;;;;;;10.02;6.72;;;4.50;99.90;;;;;;5028774;28;20280;-72
2023/12/19 13:57:12;;;;;;;9.45;6.78;;;4.50;99.90;;;;;;5046181;28;20578;-74
2023/12/19 13:59:57;;;;;;;9.73;6.95;;;4.60;99.90;;;;;;5041739;28;20597;-73
2023/12/19 14:02:43;;;;;;;8.68;6.68;;;4.50;99.90;;;;;;5045442;28;20348;-74
2023/12/19 14:05:30;;;;;;;10.48;6.93;;;4.50;99.90;;;;;;5030867;28;20292;-73
2023/12/19 14:08:18;;;;;;;11.00;7.22;;;4.50;99.90;;;;;;5041871;28;20757;-74
2023/12/19 14:11:04;;;;;;;7.17;5.53;;;4.60;99.90;;;;;;5028848;28;20197;-74
2023/12/19 14:13:51;;;;;;;8.00;6.20;;;4.50;99.90;;;;;;5043017;28;20456;-74
2023/12/19 14:16:36;;;;;;;12.63;6.85;;;4.60;99.90;;;;;;5036440;28;20202;-74
2023/12/19 14:19:22;;;;;;;10.73;7.00;;;4.60;99.90;;;;;;5046210;28;20736;-74
2023/12/19 14:22:09;;;;;;;14.43;6.93;;;4.60;99.90;;;;;;5042506;28;20226;-74